Dati Storici

Data ora Umidita' aria (%) Temperatura aria (°C) Rad globale (W/m²) Gonioanemometro (°) Tacoanemometro (m/s) Pioggia (mm)
03-11-2012 07:30 97.4 % 8.316 3.664 52.236 0.927 0
03-11-2012 07:20 97.3 % 8.174 3.625 7.447 0.354 0
03-11-2012 07:10 97.2 % 8.05 3.507 314.334 1.036 0
03-11-2012 07:00 97.2 % 8.103 3.571 331.275 1.22 0
03-11-2012 06:50 97.3 % 8.106 3.431 284.518 0.677 0
03-11-2012 06:40 97.2 % 8.102 3.431 280.538 1.354 0
03-11-2012 06:30 96.9 % 8.004 3.573 269.961 0.905 0
03-11-2012 06:20 96.9 % 7.995 3.585 1.46 0.716 0
03-11-2012 06:10 96.9 % 7.978 3.637 280.869 0.281 0
03-11-2012 06:00 96.9 % 7.89 3.386 329.585 0.582 0
03-11-2012 05:50 97 % 7.881 3.104 293.901 0.742 0
03-11-2012 05:40 96.8 % 7.788 2.411 326.279 0.775 0
03-11-2012 05:30 96.8 % 7.617 2.642 262.308 0.489 0
03-11-2012 05:20 96.9 % 7.644 2.308 293.042 0.922 0
03-11-2012 05:10 96.6 % 7.535 1.949 214.917 0.833 0
03-11-2012 05:00 96.4 % 7.461 1.784 220.436 0.763 0
03-11-2012 04:50 96.5 % 7.728 1.424 214.625 0.431 0
03-11-2012 04:40 96.6 % 7.847 1.488 2.163 0.472 0
03-11-2012 04:30 96.6 % 7.916 1.758 287.061 0.1 0
03-11-2012 04:20 96.8 % 8.06 1.745 279.057 0.582 0

I dati sono presentati in modo automatico a scopo informativo. In seguito a verifica i dati possono subire modifiche o essere invalidati e non riportati negli archivi definitivi.